createdAt,value
2023-02-08T00:00:17.831Z,27.54
2023-02-08T00:01:17.831Z,27.64
2023-02-08T00:02:17.842Z,27.64
2023-02-08T00:03:17.820Z,27.64
2023-02-08T00:04:17.815Z,27.64
2023-02-08T00:05:17.804Z,27.54
2023-02-08T00:06:17.776Z,27.54
2023-02-08T00:07:17.783Z,27.54
2023-02-08T00:08:17.746Z,27.54
2023-02-08T00:09:17.762Z,27.54
2023-02-08T00:10:17.743Z,27.54
2023-02-08T00:11:17.734Z,27.54
2023-02-08T00:12:17.724Z,27.54
2023-02-08T00:13:17.712Z,27.54
2023-02-08T00:14:17.687Z,27.54
2023-02-08T00:15:17.696Z,27.44
2023-02-08T00:16:17.836Z,27.44
2023-02-08T00:17:17.688Z,27.54
2023-02-08T00:18:17.698Z,27.54
2023-02-08T00:19:17.686Z,27.44
2023-02-08T00:20:17.634Z,27.44
2023-02-08T00:21:17.660Z,27.44
2023-02-08T00:22:17.637Z,27.44
2023-02-08T00:23:17.614Z,27.54
2023-02-08T00:24:17.584Z,27.54
2023-02-08T00:25:17.607Z,27.54
2023-02-08T00:26:17.572Z,27.44
2023-02-08T00:27:17.593Z,27.54
2023-02-08T00:28:17.602Z,27.44
2023-02-08T00:29:17.545Z,27.54
2023-02-08T00:30:17.538Z,27.44
2023-02-08T00:31:17.591Z,27.44
2023-02-08T00:32:17.541Z,27.44
2023-02-08T00:33:17.561Z,27.44
2023-02-08T00:34:17.514Z,27.44
2023-02-08T00:35:17.533Z,27.44
2023-02-08T00:36:17.478Z,27.44
2023-02-08T00:37:17.463Z,27.44
2023-02-08T00:38:17.463Z,27.34
2023-02-08T00:39:17.469Z,27.34
2023-02-08T00:40:17.409Z,27.44
2023-02-08T00:41:17.432Z,27.34
2023-02-08T00:42:17.398Z,27.34
2023-02-08T00:43:17.420Z,27.34
2023-02-08T00:44:17.378Z,27.34
2023-02-08T00:45:17.378Z,27.44
2023-02-08T00:46:17.410Z,27.34
2023-02-08T00:47:17.403Z,27.34
2023-02-08T00:48:17.340Z,27.34
2023-02-08T00:49:17.391Z,27.34
2023-02-08T00:50:17.328Z,27.34
2023-02-08T00:51:17.401Z,27.24
2023-02-08T00:52:17.292Z,27.24
2023-02-08T00:53:17.321Z,27.24
2023-02-08T00:54:17.323Z,27.24
2023-02-08T00:55:17.268Z,27.24
2023-02-08T00:56:17.256Z,27.24
2023-02-08T00:57:17.248Z,27.24
2023-02-08T00:58:17.241Z,27.24
2023-02-08T00:59:17.251Z,27.24
2023-02-08T01:00:17.206Z,27.24
2023-02-08T01:01:17.242Z,27.24
2023-02-08T01:02:17.263Z,27.24
2023-02-08T01:03:17.191Z,27.14
2023-02-08T01:04:17.194Z,27.24
2023-02-08T01:05:17.181Z,27.24
2023-02-08T01:06:17.157Z,27.24
2023-02-08T01:07:17.162Z,27.24
2023-02-08T01:08:17.123Z,27.24
2023-02-08T01:09:17.147Z,27.14
2023-02-08T01:10:17.144Z,27.14
2023-02-08T01:11:17.109Z,27.14
2023-02-08T01:12:17.083Z,27.14
2023-02-08T01:13:17.101Z,27.14
2023-02-08T01:14:17.071Z,27.14
2023-02-08T01:15:18.220Z,27.14
2023-02-08T01:16:17.086Z,27.14
2023-02-08T01:17:17.052Z,27.14
2023-02-08T01:18:17.041Z,27.04
2023-02-08T01:19:17.019Z,27.04
2023-02-08T01:20:17.009Z,27.14
2023-02-08T01:21:17.026Z,27.14
2023-02-08T01:22:16.971Z,27.14
2023-02-08T01:23:16.983Z,27.14
2023-02-08T01:24:16.949Z,27.04
2023-02-08T01:25:16.966Z,27.04
2023-02-08T01:26:16.949Z,27.04
2023-02-08T01:27:16.941Z,27.04
2023-02-08T01:28:16.935Z,27.04
2023-02-08T01:29:16.931Z,27.04
2023-02-08T01:30:16.949Z,27.04
2023-02-08T01:31:16.982Z,27.04
2023-02-08T01:32:16.875Z,27.04
2023-02-08T01:33:16.887Z,27.04
2023-02-08T01:34:16.878Z,27.04
2023-02-08T01:35:16.850Z,27.04
2023-02-08T01:36:16.882Z,27.04
2023-02-08T01:37:16.873Z,27.04
2023-02-08T01:38:16.809Z,27.04
2023-02-08T01:39:16.823Z,26.93
2023-02-08T01:40:16.789Z,26.93
2023-02-08T01:41:16.810Z,26.93
2023-02-08T01:42:16.800Z,26.93
2023-02-08T01:43:16.788Z,26.93
2023-02-08T01:44:16.750Z,26.93
2023-02-08T01:45:16.768Z,26.93
2023-02-08T01:46:16.742Z,26.93
2023-02-08T01:47:16.733Z,26.93
2023-02-08T01:48:16.721Z,26.93
2023-02-08T01:49:16.753Z,26.93
2023-02-08T01:50:16.688Z,26.93
2023-02-08T01:51:16.689Z,26.93
2023-02-08T01:52:16.684Z,26.93
2023-02-08T01:53:16.678Z,26.93
2023-02-08T01:54:16.664Z,26.93
2023-02-08T01:55:16.645Z,26.84
2023-02-08T01:56:16.619Z,26.84
2023-02-08T01:57:16.617Z,26.84
2023-02-08T01:58:16.609Z,26.84
2023-02-08T01:59:16.622Z,26.84
2023-02-08T02:00:16.607Z,26.93
2023-02-08T02:01:16.627Z,26.84
2023-02-08T02:02:16.570Z,26.84
2023-02-08T02:03:16.574Z,26.84
2023-02-08T02:04:16.601Z,26.84
2023-02-08T02:05:16.553Z,26.84
2023-02-08T02:06:16.564Z,26.84
2023-02-08T02:07:16.543Z,26.84
2023-02-08T02:08:16.500Z,26.84
2023-02-08T02:09:16.511Z,26.84
2023-02-08T02:10:16.471Z,26.73
2023-02-08T02:11:16.491Z,26.73
2023-02-08T02:12:16.460Z,26.73
2023-02-08T02:13:16.484Z,26.73
2023-02-08T02:14:16.441Z,26.73
2023-02-08T02:15:16.436Z,26.73
2023-02-08T02:16:16.442Z,26.73
2023-02-08T02:17:16.425Z,26.73
2023-02-08T02:18:16.405Z,26.73
2023-02-08T02:19:17.360Z,26.73
2023-02-08T02:20:16.396Z,26.73
2023-02-08T02:21:16.408Z,26.73
2023-02-08T02:22:16.353Z,26.64
2023-02-08T02:23:16.366Z,26.64
2023-02-08T02:24:16.354Z,26.73
2023-02-08T02:25:16.367Z,26.64
2023-02-08T02:26:16.330Z,26.73
2023-02-08T02:27:16.318Z,26.64
2023-02-08T02:28:16.391Z,26.64
2023-02-08T02:29:16.320Z,26.64
2023-02-08T02:30:16.272Z,26.64
2023-02-08T02:31:16.365Z,26.64
2023-02-08T02:32:16.260Z,26.64
2023-02-08T02:33:16.251Z,26.64
2023-02-08T02:34:16.220Z,26.64
2023-02-08T02:35:16.230Z,26.64
2023-02-08T02:36:16.212Z,26.64
2023-02-08T02:37:16.225Z,26.64
2023-02-08T02:38:16.211Z,26.64
2023-02-08T02:39:16.171Z,26.64
2023-02-08T02:40:16.226Z,26.64
2023-02-08T02:41:16.170Z,26.64
2023-02-08T02:42:16.171Z,26.64
2023-02-08T02:43:16.133Z,26.64
2023-02-08T02:44:16.172Z,26.64
2023-02-08T02:45:16.133Z,26.64
2023-02-08T02:46:16.131Z,26.53
2023-02-08T02:47:16.101Z,26.53
2023-02-08T02:48:16.096Z,26.53
2023-02-08T02:49:16.077Z,26.53
2023-02-08T02:50:16.113Z,26.53
2023-02-08T02:51:16.304Z,26.53
2023-02-08T02:52:16.065Z,26.53
2023-02-08T02:53:16.055Z,26.53
2023-02-08T02:54:16.054Z,26.53
2023-02-08T02:55:16.043Z,26.53
2023-02-08T02:56:16.019Z,26.53
2023-02-08T02:57:16.031Z,26.53
2023-02-08T02:58:16.006Z,26.53
2023-02-08T02:59:15.999Z,26.53
2023-02-08T03:00:15.978Z,26.53
2023-02-08T03:01:16.015Z,26.53
2023-02-08T03:02:15.991Z,26.43
2023-02-08T03:03:15.929Z,26.43
2023-02-08T03:04:15.959Z,26.43
2023-02-08T03:05:15.909Z,26.43
2023-02-08T03:06:15.925Z,26.43
2023-02-08T03:07:15.890Z,26.43
2023-02-08T03:08:15.887Z,26.43
2023-02-08T03:09:15.898Z,26.43
2023-02-08T03:10:15.878Z,26.43
2023-02-08T03:11:15.876Z,26.43
2023-02-08T03:12:15.917Z,26.43
2023-02-08T03:13:15.831Z,26.43
2023-02-08T03:14:15.846Z,26.43
2023-02-08T03:15:15.804Z,26.43
2023-02-08T03:16:15.834Z,26.43
2023-02-08T03:17:15.790Z,26.33
2023-02-08T03:18:15.802Z,26.33
2023-02-08T03:19:15.769Z,26.33
2023-02-08T03:20:15.773Z,26.33
2023-02-08T03:21:15.756Z,26.33
2023-02-08T03:22:15.791Z,26.33
2023-02-08T03:23:15.736Z,26.43
2023-02-08T03:24:15.741Z,26.43
2023-02-08T03:25:15.717Z,26.43
2023-02-08T03:26:15.721Z,26.33
2023-02-08T03:27:15.697Z,26.33
2023-02-08T03:28:15.782Z,26.33
2023-02-08T03:29:15.659Z,26.33
2023-02-08T03:30:15.659Z,26.33
2023-02-08T03:31:15.786Z,26.33
2023-02-08T03:32:15.668Z,26.33
2023-02-08T03:33:15.619Z,26.33
2023-02-08T03:34:15.638Z,26.33
2023-02-08T03:35:15.626Z,26.23
2023-02-08T03:36:15.612Z,26.23
2023-02-08T03:37:15.661Z,26.23
2023-02-08T03:38:15.592Z,26.23
2023-02-08T03:39:15.551Z,26.23
2023-02-08T03:40:15.571Z,26.23
2023-02-08T03:41:15.561Z,26.23
2023-02-08T03:42:15.561Z,26.33
2023-02-08T03:43:15.529Z,26.33
2023-02-08T03:44:15.550Z,26.33
2023-02-08T03:45:15.491Z,26.23
2023-02-08T03:46:15.557Z,26.23
2023-02-08T03:47:15.487Z,26.23
2023-02-08T03:48:15.505Z,26.23
2023-02-08T03:49:15.460Z,26.23
2023-02-08T03:50:15.449Z,26.23
2023-02-08T03:51:15.466Z,26.23
2023-02-08T03:52:15.441Z,26.13
2023-02-08T03:53:15.433Z,26.13
2023-02-08T03:54:15.429Z,26.13
2023-02-08T03:55:15.384Z,26.13
2023-02-08T03:56:15.411Z,26.13
2023-02-08T03:57:15.368Z,26.13
2023-02-08T03:58:15.377Z,26.13
2023-02-08T03:59:15.357Z,26.13
2023-02-08T04:00:16.001Z,26.13
2023-02-08T04:01:15.327Z,26.13
2023-02-08T04:02:15.336Z,26.13
2023-02-08T04:03:15.296Z,26.13
2023-02-08T04:04:15.324Z,26.13
2023-02-08T04:05:15.276Z,26.13
2023-02-08T04:06:15.286Z,26.13
2023-02-08T04:08:11.231Z,26.03
2023-02-08T04:09:11.185Z,26.03
2023-02-08T04:10:11.265Z,26.03
2023-02-08T04:11:11.175Z,26.03
2023-02-08T04:12:11.173Z,26.03
2023-02-08T04:13:11.157Z,26.03
2023-02-08T04:14:11.141Z,26.03
2023-02-08T04:15:11.116Z,26.03
2023-02-08T04:16:11.227Z,26.03
2023-02-08T04:17:11.112Z,26.03
2023-02-08T04:18:11.103Z,25.93
2023-02-08T04:19:11.126Z,26.03
2023-02-08T04:20:11.094Z,26.03
2023-02-08T04:21:11.099Z,25.93
2023-02-08T04:22:11.121Z,25.93
2023-02-08T04:23:11.071Z,25.93
2023-02-08T04:24:11.085Z,25.93
2023-02-08T04:25:11.032Z,25.93
2023-02-08T04:26:11.026Z,25.93
2023-02-08T04:27:10.993Z,25.93
2023-02-08T04:28:11.041Z,25.93
2023-02-08T04:29:10.985Z,25.93
2023-02-08T04:30:11.024Z,25.93
2023-02-08T04:31:11.135Z,25.93
2023-02-08T04:32:10.987Z,25.93
2023-02-08T04:33:10.939Z,25.93
2023-02-08T04:34:10.948Z,25.93
2023-02-08T04:35:10.907Z,25.93
2023-02-08T04:36:10.935Z,25.93
2023-02-08T04:37:10.913Z,25.93
2023-02-08T04:38:10.901Z,25.93
2023-02-08T04:39:10.872Z,25.83
2023-02-08T04:40:10.870Z,25.83
2023-02-08T04:41:10.877Z,25.83
2023-02-08T04:42:10.864Z,25.83
2023-02-08T04:43:10.871Z,25.83
2023-02-08T04:44:10.874Z,25.83
2023-02-08T04:45:10.830Z,25.83
2023-02-08T04:46:11.491Z,25.83
2023-02-08T04:47:10.821Z,25.83
2023-02-08T04:48:11.992Z,25.83
2023-02-08T04:49:10.797Z,25.83
2023-02-08T04:50:10.778Z,25.83
2023-02-08T04:51:10.821Z,25.83
2023-02-08T04:52:10.745Z,25.73
2023-02-08T04:53:10.741Z,25.73
2023-02-08T04:54:10.752Z,25.83
2023-02-08T04:55:10.741Z,25.83
2023-02-08T04:56:10.772Z,25.73
2023-02-08T04:57:10.736Z,25.83
2023-02-08T04:58:10.732Z,25.83
2023-02-08T04:59:10.685Z,25.73
2023-02-08T05:00:10.753Z,25.83
2023-02-08T05:01:10.669Z,25.83
2023-02-08T05:02:10.661Z,25.83
2023-02-08T05:03:10.628Z,25.73
2023-02-08T05:04:10.658Z,25.73
2023-02-08T05:05:10.634Z,25.73
2023-02-08T05:06:10.610Z,25.73
2023-02-08T05:07:10.602Z,25.73
2023-02-08T05:08:10.610Z,25.73
2023-02-08T05:09:10.566Z,25.73
2023-02-08T05:10:10.736Z,25.73
2023-02-08T05:11:10.584Z,25.73
2023-02-08T05:12:10.568Z,25.73
2023-02-08T05:13:10.531Z,25.73
2023-02-08T05:14:10.539Z,25.73
2023-02-08T05:15:10.548Z,25.73
2023-02-08T05:16:10.524Z,25.73
2023-02-08T05:17:10.487Z,25.73
2023-02-08T05:18:10.519Z,25.73
2023-02-08T05:19:10.468Z,25.73
2023-02-08T05:20:10.474Z,25.73
2023-02-08T05:21:10.637Z,25.73
2023-02-08T05:22:10.449Z,25.63
2023-02-08T05:23:10.416Z,25.73
2023-02-08T05:24:10.426Z,25.63
2023-02-08T05:25:10.406Z,25.63
2023-02-08T05:26:10.405Z,25.63
2023-02-08T05:27:10.407Z,25.63
2023-02-08T05:28:10.483Z,25.63
2023-02-08T05:29:10.357Z,25.63
2023-02-08T05:30:10.389Z,25.63
2023-02-08T05:31:10.440Z,25.53
2023-02-08T05:32:10.337Z,25.53
2023-02-08T05:33:10.318Z,25.53
2023-02-08T05:34:10.315Z,25.53
2023-02-08T05:35:10.336Z,25.53
2023-02-08T05:36:10.310Z,25.53
2023-02-08T05:37:10.296Z,25.53
2023-02-08T05:38:10.265Z,25.53
2023-02-08T05:39:10.267Z,25.53
2023-02-08T05:40:10.276Z,25.53
2023-02-08T05:41:10.263Z,25.53
2023-02-08T05:42:10.263Z,25.53
2023-02-08T05:43:10.227Z,25.53
2023-02-08T05:44:10.200Z,25.53
2023-02-08T05:45:10.191Z,25.53
2023-02-08T05:46:10.179Z,25.53
2023-02-08T05:47:10.181Z,25.53
2023-02-08T05:48:10.222Z,25.53
2023-02-08T05:49:10.178Z,25.53
2023-02-08T05:50:10.123Z,25.43
2023-02-08T05:51:10.172Z,25.43
2023-02-08T05:52:10.332Z,25.43
2023-02-08T05:53:10.122Z,25.43
2023-02-08T05:54:10.091Z,25.43
2023-02-08T05:55:10.108Z,25.43
2023-02-08T05:56:10.064Z,25.43
2023-02-08T05:57:10.071Z,25.43
2023-02-08T05:58:10.060Z,25.43
2023-02-08T05:59:10.050Z,25.43
2023-02-08T06:00:10.021Z,25.43
2023-02-08T06:01:10.021Z,25.43
2023-02-08T06:02:10.013Z,25.43
2023-02-08T06:03:10.078Z,25.43
2023-02-08T06:04:10.055Z,25.43
2023-02-08T06:05:10.032Z,25.43
2023-02-08T06:06:09.972Z,25.43
2023-02-08T06:07:09.982Z,25.43
2023-02-08T06:08:09.965Z,25.43
2023-02-08T06:09:09.981Z,25.33
2023-02-08T06:10:11.394Z,25.43
2023-02-08T06:11:09.931Z,25.43
2023-02-08T06:12:09.926Z,25.43
2023-02-08T06:13:09.959Z,25.43
2023-02-08T06:14:09.881Z,25.33
2023-02-08T06:15:09.949Z,25.33
2023-02-08T06:16:09.875Z,25.33
2023-02-08T06:17:09.870Z,25.33
2023-02-08T06:18:09.851Z,25.33
2023-02-08T06:19:09.862Z,25.33
2023-02-08T06:20:09.830Z,25.33
2023-02-08T06:21:09.844Z,25.33
2023-02-08T06:22:09.804Z,25.33
2023-02-08T06:23:09.772Z,25.33
2023-02-08T06:24:09.784Z,25.33
2023-02-08T06:25:09.783Z,25.33
2023-02-08T06:26:09.782Z,25.23
2023-02-08T06:27:09.763Z,25.23
2023-02-08T06:28:09.778Z,25.23
2023-02-08T06:29:09.741Z,25.33
2023-02-08T06:30:09.700Z,25.23
2023-02-08T06:31:09.723Z,25.23
2023-02-08T06:32:09.851Z,25.33
2023-02-08T06:33:09.690Z,25.23
2023-02-08T06:34:09.682Z,25.23
2023-02-08T06:35:09.698Z,25.23
2023-02-08T06:36:09.621Z,25.23
2023-02-08T06:37:09.680Z,25.23
2023-02-08T06:38:09.654Z,25.23
2023-02-08T06:39:09.642Z,24.93
2023-02-08T06:40:09.601Z,24.93
2023-02-08T06:41:10.571Z,25.02
2023-02-08T06:42:09.581Z,25.13
2023-02-08T06:43:09.602Z,25.13
2023-02-08T06:44:09.572Z,25.13
2023-02-08T06:45:13.321Z,25.13
2023-02-08T06:46:09.579Z,25.13
2023-02-08T06:47:09.503Z,25.13
2023-02-08T06:48:09.482Z,25.23
2023-02-08T06:49:09.495Z,25.23
2023-02-08T06:50:09.471Z,25.23
2023-02-08T06:51:09.461Z,25.33
2023-02-08T06:52:09.429Z,25.33
2023-02-08T06:53:09.431Z,25.33
2023-02-08T06:54:09.410Z,25.33
2023-02-08T06:55:09.427Z,25.34
2023-02-08T06:56:09.429Z,25.43
2023-02-08T06:57:09.400Z,25.44
2023-02-08T06:58:09.361Z,25.54
2023-02-08T06:59:09.373Z,25.54
2023-02-08T07:00:09.363Z,25.54
2023-02-08T07:01:09.419Z,25.64
2023-02-08T07:02:09.332Z,25.64
2023-02-08T07:03:09.335Z,25.64
2023-02-08T07:04:09.305Z,25.74
2023-02-08T07:05:09.317Z,25.74
2023-02-08T07:06:09.324Z,25.74
2023-02-08T07:07:09.315Z,25.74
2023-02-08T07:08:09.254Z,25.84
2023-02-08T07:09:09.273Z,25.84
2023-02-08T07:10:09.252Z,25.84
2023-02-08T07:11:09.269Z,25.84
2023-02-08T07:12:09.213Z,25.94
2023-02-08T07:13:09.245Z,25.94
2023-02-08T07:14:09.200Z,25.94
2023-02-08T07:15:09.212Z,25.94
2023-02-08T07:16:09.185Z,25.94
2023-02-08T07:17:09.198Z,25.94
2023-02-08T07:18:09.167Z,25.94
2023-02-08T07:19:09.181Z,25.94
2023-02-08T07:20:09.134Z,25.94
2023-02-08T07:21:09.205Z,25.94
2023-02-08T07:22:09.146Z,25.94
2023-02-08T07:23:09.114Z,26.04
2023-02-08T07:24:10.084Z,26.04
2023-02-08T07:25:09.130Z,26.04
2023-02-08T07:26:09.100Z,26.04
2023-02-08T07:27:09.113Z,26.04
2023-02-08T07:28:09.104Z,26.04
2023-02-08T07:29:09.052Z,26.04
2023-02-08T07:30:09.024Z,26.04
2023-02-08T07:31:09.143Z,26.04
2023-02-08T07:32:09.051Z,26.04
2023-02-08T07:33:09.046Z,26.04
2023-02-08T07:34:08.996Z,26.04
2023-02-08T07:35:09.006Z,26.04
2023-02-08T07:36:09.011Z,26.14
2023-02-08T07:37:08.997Z,26.04
2023-02-08T07:38:08.946Z,26.14
2023-02-08T07:39:08.954Z,26.14
2023-02-08T07:40:08.937Z,26.14
2023-02-08T07:41:08.928Z,26.14
2023-02-08T07:42:08.916Z,26.14
2023-02-08T07:43:08.942Z,26.14
2023-02-08T07:44:08.898Z,26.14
2023-02-08T07:45:08.899Z,26.14
2023-02-08T07:46:08.916Z,26.04
2023-02-08T07:47:08.867Z,26.04
2023-02-08T07:48:08.869Z,26.04
2023-02-08T07:49:08.877Z,26.04
2023-02-08T07:50:08.817Z,26.04
2023-02-08T07:51:08.817Z,26.04
2023-02-08T07:52:08.798Z,26.04
2023-02-08T07:53:08.807Z,26.04
2023-02-08T07:54:08.796Z,26.04
2023-02-08T07:55:08.812Z,26.04
2023-02-08T07:56:08.769Z,26.14
2023-02-08T07:57:08.843Z,26.14
2023-02-08T07:58:08.748Z,26.14
2023-02-08T07:59:08.779Z,26.14
2023-02-08T08:00:09.441Z,26.14
2023-02-08T08:01:21.504Z,26.14
2023-02-08T08:02:09.755Z,26.14
2023-02-08T08:03:08.704Z,26.14
2023-02-08T08:04:08.745Z,26.14
2023-02-08T08:05:08.724Z,26.14
2023-02-08T08:06:08.651Z,26.25
2023-02-08T08:07:08.672Z,26.25
2023-02-08T08:08:08.664Z,26.14
2023-02-08T08:09:08.642Z,26.25
2023-02-08T08:10:08.616Z,26.25
2023-02-08T08:11:08.620Z,26.25
2023-02-08T08:12:08.606Z,26.14
2023-02-08T08:13:08.612Z,26.14
2023-02-08T08:14:08.602Z,26.25
2023-02-08T08:15:08.622Z,26.23
2023-02-08T08:16:08.569Z,26.23
2023-02-08T08:17:08.824Z,26.23
2023-02-08T08:18:08.541Z,26.23
2023-02-08T08:19:08.565Z,26.23
2023-02-08T08:20:08.588Z,26.23
2023-02-08T08:21:08.620Z,26.23
2023-02-08T08:22:08.506Z,26.33
2023-02-08T08:23:08.502Z,26.33
2023-02-08T08:24:08.488Z,26.43
2023-02-08T08:25:08.471Z,26.64
2023-02-08T08:26:08.455Z,26.73
2023-02-08T08:27:08.481Z,26.93
2023-02-08T08:28:08.497Z,26.84
2023-02-08T08:29:08.456Z,26.73
2023-02-08T08:30:08.451Z,26.73
2023-02-08T08:31:08.487Z,26.73
2023-02-08T08:32:09.824Z,26.73
2023-02-08T08:33:08.402Z,26.73
2023-02-08T08:34:08.375Z,26.73
2023-02-08T08:35:08.394Z,26.43
2023-02-08T08:36:08.365Z,27.04
2023-02-08T08:37:08.361Z,27.04
2023-02-08T08:38:08.372Z,27.04
2023-02-08T08:39:08.335Z,24.62
2023-02-08T08:40:08.317Z,22.81
2023-02-08T08:41:08.371Z,23.62
2023-02-08T08:42:08.291Z,24.82
2023-02-08T08:43:08.313Z,25.23
2023-02-08T08:44:08.281Z,23.52
2023-02-08T08:45:08.276Z,23.42
2023-02-08T08:46:08.366Z,23.92
2023-02-08T08:47:08.279Z,22.91
2023-02-08T08:48:08.231Z,23.02
2023-02-08T08:49:08.250Z,22.11
2023-02-08T08:50:08.200Z,21.51
2023-02-08T08:51:08.261Z,20.92
2023-02-08T08:52:08.185Z,20.41
2023-02-08T08:53:08.212Z,20.22
2023-02-08T08:54:08.212Z,20.12
2023-02-08T08:55:08.182Z,20.12
2023-02-08T08:56:08.143Z,20.03
2023-02-08T08:57:08.152Z,20.03
2023-02-08T08:58:08.138Z,19.84
2023-02-08T08:59:08.144Z,19.94
2023-02-08T09:00:08.114Z,19.95
2023-02-08T09:01:08.110Z,19.95
2023-02-08T09:02:08.070Z,19.96
2023-02-08T09:03:08.116Z,20.46
2023-02-08T09:04:08.060Z,20.86
2023-02-08T09:05:08.101Z,21.37
2023-02-08T09:06:08.037Z,22.17
2023-02-08T09:07:08.050Z,22.58
2023-02-08T09:09:04.723Z,23.07
2023-02-08T09:10:04.728Z,23.37
2023-02-08T09:11:04.669Z,23.36
2023-02-08T09:12:04.678Z,23.26
2023-02-08T09:13:04.682Z,23.45
2023-02-08T09:14:04.862Z,23.65
2023-02-08T09:15:04.661Z,23.84
2023-02-08T09:16:05.308Z,24.15
2023-02-08T09:17:04.631Z,24.74
2023-02-08T09:18:04.644Z,24.84
2023-02-08T09:19:04.610Z,24.73
2023-02-08T09:20:04.968Z,24.93
2023-02-08T09:21:04.570Z,25.02
2023-02-08T09:22:04.600Z,25.12
2023-02-08T09:23:04.562Z,25.32
2023-02-08T09:24:04.559Z,25.42
2023-02-08T09:25:04.529Z,25.60
2023-02-08T09:26:04.573Z,25.60
2023-02-08T09:27:04.517Z,25.71
2023-02-08T09:28:04.727Z,25.79
2023-02-08T09:29:04.496Z,25.89
2023-02-08T09:30:04.498Z,25.89
2023-02-08T09:31:04.558Z,26.28
2023-02-08T09:32:04.551Z,26.68
2023-02-08T09:33:04.446Z,26.58
2023-02-08T09:34:04.456Z,26.68
2023-02-08T09:35:04.462Z,26.78
2023-02-08T09:36:04.468Z,27.17
2023-02-08T09:37:04.420Z,26.67
2023-02-08T09:38:04.446Z,26.57
2023-02-08T09:39:04.418Z,26.67
2023-02-08T09:40:04.382Z,26.77
2023-02-08T09:41:04.411Z,26.76
2023-02-08T09:42:04.358Z,26.76
2023-02-08T09:43:04.383Z,26.86
2023-02-08T09:44:04.336Z,26.86
2023-02-08T09:45:04.372Z,27.06
2023-02-08T09:46:04.312Z,27.06
2023-02-08T09:47:04.319Z,27.15
2023-02-08T09:48:04.302Z,27.25
2023-02-08T09:49:04.332Z,27.25
2023-02-08T09:50:05.243Z,27.35
2023-02-08T09:51:04.287Z,27.45
2023-02-08T09:52:04.255Z,27.55
2023-02-08T09:53:04.272Z,27.65
2023-02-08T09:54:04.275Z,27.75
2023-02-08T09:55:04.260Z,27.73
2023-02-08T09:56:04.224Z,27.94
2023-02-08T09:57:04.228Z,27.94
2023-02-08T09:58:04.194Z,27.94
2023-02-08T09:59:04.195Z,28.03
2023-02-08T10:00:04.174Z,28.14
2023-02-08T10:01:06.073Z,28.14
2023-02-08T10:02:04.174Z,28.23
2023-02-08T10:03:04.164Z,28.33
2023-02-08T10:04:04.157Z,28.32
2023-02-08T10:05:04.142Z,28.42
2023-02-08T10:06:04.126Z,28.42
2023-02-08T10:07:04.168Z,28.52
2023-02-08T10:08:04.114Z,28.62
2023-02-08T10:09:04.087Z,28.62
2023-02-08T10:10:04.095Z,28.72
2023-02-08T10:11:04.084Z,28.82
2023-02-08T10:12:04.111Z,28.62
2023-02-08T10:13:04.034Z,28.62
2023-02-08T10:14:04.048Z,28.82
2023-02-08T10:15:04.030Z,28.82
2023-02-08T10:16:04.090Z,28.92
2023-02-08T10:17:04.063Z,29.02
2023-02-08T10:18:04.039Z,29.12
2023-02-08T10:19:03.986Z,29.21
2023-02-08T10:20:04.187Z,29.21
2023-02-08T10:21:03.975Z,29.21
2023-02-08T10:22:03.987Z,29.21
2023-02-08T10:23:03.945Z,29.21
2023-02-08T10:24:03.984Z,29.21
2023-02-08T10:25:03.944Z,29.21
2023-02-08T10:26:03.967Z,29.31
2023-02-08T10:27:03.942Z,29.41
2023-02-08T10:28:03.993Z,29.51
2023-02-08T10:29:03.886Z,29.51
2023-02-08T10:30:03.915Z,29.51
2023-02-08T10:31:03.963Z,29.51
2023-02-08T10:32:03.938Z,29.71
2023-02-08T10:33:03.877Z,29.61
2023-02-08T10:34:03.846Z,29.61
2023-02-08T10:35:03.817Z,29.81
2023-02-08T10:36:03.835Z,29.81
2023-02-08T10:37:03.902Z,29.91
2023-02-08T10:38:03.828Z,29.91
2023-02-08T10:39:03.787Z,29.81
2023-02-08T10:40:03.794Z,29.81
2023-02-08T10:41:03.768Z,29.81
2023-02-08T10:42:03.769Z,29.91
2023-02-08T10:43:03.750Z,29.81
2023-02-08T10:44:03.754Z,29.91
2023-02-08T10:45:06.541Z,30.11
2023-02-08T10:46:04.749Z,30.11
2023-02-08T10:47:03.697Z,30.01
2023-02-08T10:48:03.727Z,30.11
2023-02-08T10:49:03.694Z,30.01
2023-02-08T10:50:03.697Z,30.11
2023-02-08T10:51:03.675Z,29.91
2023-02-08T10:52:03.721Z,30.01
2023-02-08T10:53:03.694Z,30.01
2023-02-08T10:54:03.646Z,30.21
2023-02-08T10:55:03.624Z,30.31
2023-02-08T10:56:03.623Z,30.01
2023-02-08T10:57:03.619Z,29.91
2023-02-08T10:58:03.604Z,29.91
2023-02-08T10:59:03.593Z,30.01
2023-02-08T11:00:03.596Z,30.01
2023-02-08T11:01:03.629Z,29.99
2023-02-08T11:02:03.553Z,30.21
2023-02-08T11:03:03.549Z,29.99
2023-02-08T11:04:03.643Z,30.21
2023-02-08T11:05:03.549Z,30.21
2023-02-08T11:06:03.537Z,30.41
2023-02-08T11:07:03.491Z,30.31
2023-02-08T11:08:03.481Z,30.21
2023-02-08T11:09:03.481Z,30.11
2023-02-08T11:10:03.466Z,30.11
2023-02-08T11:11:03.492Z,30.41
2023-02-08T11:12:03.482Z,29.31
2023-02-08T11:13:03.444Z,21.91
2023-02-08T11:14:03.490Z,20.62
2023-02-08T11:15:03.427Z,19.31
2023-02-08T11:16:03.490Z,18.32
2023-02-08T11:17:03.394Z,18.13
2023-02-08T11:18:03.392Z,18.04
2023-02-08T11:19:03.363Z,17.55
2023-02-08T11:20:03.413Z,17.66
2023-02-08T11:21:03.367Z,17.77
2023-02-08T11:22:03.404Z,17.98
2023-02-08T11:23:03.336Z,17.99
2023-02-08T11:24:03.449Z,18.40
2023-02-08T11:25:03.354Z,19.01
2023-02-08T11:26:03.320Z,19.51
2023-02-08T11:27:03.313Z,20.52
2023-02-08T11:28:03.361Z,20.92
2023-02-08T11:29:03.289Z,21.03
2023-02-08T11:30:04.232Z,24.95
2023-02-08T11:31:03.266Z,25.44
2023-02-08T11:32:03.394Z,23.93
2023-02-08T11:33:03.227Z,23.83
2023-02-08T11:34:03.365Z,23.93
2023-02-08T11:35:03.216Z,23.92
2023-02-08T11:36:03.224Z,23.82
2023-02-08T11:37:03.186Z,23.82
2023-02-08T11:38:03.230Z,23.81
2023-02-08T11:39:03.167Z,23.71
2023-02-08T11:40:03.168Z,23.71
2023-02-08T11:41:03.152Z,23.71
2023-02-08T11:42:03.182Z,23.81
2023-02-08T11:43:03.129Z,23.80
2023-02-08T11:44:03.244Z,23.80
2023-02-08T11:45:03.119Z,23.90
2023-02-08T11:46:03.150Z,23.90
2023-02-08T11:47:03.089Z,23.88
2023-02-08T11:48:03.102Z,23.99
2023-02-08T11:49:03.067Z,23.99
2023-02-08T11:50:03.081Z,23.99
2023-02-08T11:51:03.104Z,23.99
2023-02-08T11:52:03.065Z,24.08
2023-02-08T11:53:03.057Z,24.08
2023-02-08T11:54:03.112Z,24.08
2023-02-08T11:55:02.998Z,24.08
2023-02-08T11:56:03.015Z,24.08
2023-02-08T11:57:03.008Z,24.08
2023-02-08T11:58:02.998Z,24.08
2023-02-08T11:59:02.983Z,24.08
2023-02-08T12:00:02.990Z,24.08
2023-02-08T12:01:03.901Z,24.08
2023-02-08T12:02:03.010Z,24.08
2023-02-08T12:03:02.942Z,24.08
2023-02-08T12:04:03.016Z,24.08
2023-02-08T12:05:02.913Z,24.16
2023-02-08T12:06:02.906Z,24.37
2023-02-08T12:07:02.907Z,24.26
2023-02-08T12:08:03.090Z,24.37
2023-02-08T12:09:02.888Z,24.46
2023-02-08T12:10:02.879Z,24.26
2023-02-08T12:11:02.879Z,24.46
2023-02-08T12:12:02.861Z,24.37
2023-02-08T12:13:02.837Z,24.46
2023-02-08T12:14:02.877Z,24.37
2023-02-08T12:15:02.839Z,24.37
2023-02-08T12:16:03.166Z,24.46
2023-02-08T12:17:02.811Z,24.45
2023-02-08T12:18:02.806Z,24.45
2023-02-08T12:19:03.804Z,24.45
2023-02-08T12:20:02.759Z,24.55
2023-02-08T12:21:02.779Z,24.55
2023-02-08T12:22:03.409Z,24.55
2023-02-08T12:23:02.742Z,24.55
2023-02-08T12:24:02.730Z,24.45
2023-02-08T12:25:02.766Z,24.45
2023-02-08T12:26:02.679Z,24.45
2023-02-08T12:27:02.712Z,24.45
2023-02-08T12:28:02.692Z,24.45
2023-02-08T12:29:02.669Z,24.45
2023-02-08T12:30:02.656Z,24.45
2023-02-08T12:31:02.715Z,24.45
2023-02-08T12:32:02.649Z,24.46
2023-02-08T12:33:02.646Z,24.45
2023-02-08T12:34:02.618Z,24.46
2023-02-08T12:35:02.661Z,24.57
2023-02-08T12:36:04.900Z,24.57
2023-02-08T12:37:02.608Z,24.57
2023-02-08T12:38:02.594Z,24.57
2023-02-08T12:39:17.766Z,24.57
2023-02-08T12:40:03.564Z,24.57
2023-02-08T12:41:02.554Z,24.57
2023-02-08T12:42:02.516Z,24.57
2023-02-08T12:43:02.516Z,24.66
2023-02-08T12:44:02.535Z,24.66
2023-02-08T12:45:02.523Z,24.66
2023-02-08T12:46:02.546Z,24.66
2023-02-08T12:47:02.485Z,24.66
2023-02-08T12:48:04.669Z,24.66
2023-02-08T12:49:02.527Z,24.66
2023-02-08T12:50:02.696Z,24.77
2023-02-08T12:51:02.481Z,24.77
2023-02-08T12:52:02.428Z,24.77
2023-02-08T12:53:02.416Z,24.77
2023-02-08T12:54:02.417Z,24.77